sensor_id;sensor_type;location;lat;lon;timestamp;P1;durP1;ratioP1;P2;durP2;ratioP2
18592;SDS011;9426;54.118;17.948;2023-03-24T00:00:21;8.40;;;5.70;;
18592;SDS011;9426;54.118;17.948;2023-03-24T00:05:45;12.27;;;6.70;;
18592;SDS011;9426;54.118;17.948;2023-03-24T00:11:11;10.97;;;5.27;;
18592;SDS011;9426;54.118;17.948;2023-03-24T00:16:38;11.20;;;6.07;;
18592;SDS011;9426;54.118;17.948;2023-03-24T00:22:03;11.27;;;6.10;;
18592;SDS011;9426;54.118;17.948;2023-03-24T00:27:28;10.87;;;6.30;;
18592;SDS011;9426;54.118;17.948;2023-03-24T00:32:57;13.67;;;6.77;;
18592;SDS011;9426;54.118;17.948;2023-03-24T00:38:22;11.90;;;6.37;;
18592;SDS011;9426;54.118;17.948;2023-03-24T00:43:48;12.90;;;7.03;;
18592;SDS011;9426;54.118;17.948;2023-03-24T00:49:12;12.37;;;7.10;;
18592;SDS011;9426;54.118;17.948;2023-03-24T00:54:37;11.33;;;7.07;;
18592;SDS011;9426;54.118;17.948;2023-03-24T01:00:04;18.33;;;8.03;;
18592;SDS011;9426;54.118;17.948;2023-03-24T01:05:34;22.73;;;10.07;;
18592;SDS011;9426;54.118;17.948;2023-03-24T01:10:59;14.90;;;9.33;;
18592;SDS011;9426;54.118;17.948;2023-03-24T01:16:25;14.73;;;9.23;;
18592;SDS011;9426;54.118;17.948;2023-03-24T01:21:50;26.53;;;11.43;;
18592;SDS011;9426;54.118;17.948;2023-03-24T01:27:16;22.70;;;10.00;;
18592;SDS011;9426;54.118;17.948;2023-03-24T01:32:41;20.50;;;10.87;;
18592;SDS011;9426;54.118;17.948;2023-03-24T01:38:06;21.13;;;11.77;;
18592;SDS011;9426;54.118;17.948;2023-03-24T01:43:32;23.07;;;11.80;;
18592;SDS011;9426;54.118;17.948;2023-03-24T01:48:58;21.20;;;12.33;;
18592;SDS011;9426;54.118;17.948;2023-03-24T01:54:25;37.13;;;12.63;;
18592;SDS011;9426;54.118;17.948;2023-03-24T01:59:55;21.53;;;11.70;;
18592;SDS011;9426;54.118;17.948;2023-03-24T02:05:44;18.57;;;11.63;;
18592;SDS011;9426;54.118;17.948;2023-03-24T02:11:11;24.00;;;13.13;;
18592;SDS011;9426;54.118;17.948;2023-03-24T02:16:53;22.93;;;12.43;;
18592;SDS011;9426;54.118;17.948;2023-03-24T02:22:41;18.60;;;11.83;;
18592;SDS011;9426;54.118;17.948;2023-03-24T02:28:40;24.50;;;12.57;;
18592;SDS011;9426;54.118;17.948;2023-03-24T02:40:15;23.37;;;13.83;;
18592;SDS011;9426;54.118;17.948;2023-03-24T02:45:50;28.50;;;13.90;;
18592;SDS011;9426;54.118;17.948;2023-03-24T02:51:23;27.43;;;13.07;;
18592;SDS011;9426;54.118;17.948;2023-03-24T02:56:54;38.00;;;15.20;;
18592;SDS011;9426;54.118;17.948;2023-03-24T03:02:51;27.80;;;13.77;;
18592;SDS011;9426;54.118;17.948;2023-03-24T03:08:19;18.53;;;11.33;;
18592;SDS011;9426;54.118;17.948;2023-03-24T03:13:47;16.47;;;10.27;;
18592;SDS011;9426;54.118;17.948;2023-03-24T03:19:14;14.33;;;9.20;;
18592;SDS011;9426;54.118;17.948;2023-03-24T03:24:43;16.07;;;10.03;;
18592;SDS011;9426;54.118;17.948;2023-03-24T03:30:14;14.47;;;9.47;;
18592;SDS011;9426;54.118;17.948;2023-03-24T03:35:41;16.07;;;9.87;;
18592;SDS011;9426;54.118;17.948;2023-03-24T03:41:08;12.77;;;8.30;;
18592;SDS011;9426;54.118;17.948;2023-03-24T03:46:35;11.30;;;7.70;;
18592;SDS011;9426;54.118;17.948;2023-03-24T03:52:02;12.53;;;7.67;;
18592;SDS011;9426;54.118;17.948;2023-03-24T03:57:26;16.73;;;8.53;;
18592;SDS011;9426;54.118;17.948;2023-03-24T04:03:22;15.37;;;9.17;;
18592;SDS011;9426;54.118;17.948;2023-03-24T04:09:00;15.33;;;9.63;;
18592;SDS011;9426;54.118;17.948;2023-03-24T04:14:39;17.47;;;10.60;;
18592;SDS011;9426;54.118;17.948;2023-03-24T04:20:41;17.67;;;11.10;;
18592;SDS011;9426;54.118;17.948;2023-03-24T04:26:10;18.60;;;10.63;;
18592;SDS011;9426;54.118;17.948;2023-03-24T04:31:52;16.47;;;10.30;;
18592;SDS011;9426;54.118;17.948;2023-03-24T04:37:24;18.33;;;9.67;;
18592;SDS011;9426;54.118;17.948;2023-03-24T04:42:56;15.07;;;10.03;;
18592;SDS011;9426;54.118;17.948;2023-03-24T04:48:22;14.13;;;9.30;;
18592;SDS011;9426;54.118;17.948;2023-03-24T04:53:58;15.13;;;9.20;;
18592;SDS011;9426;54.118;17.948;2023-03-24T04:59:24;16.90;;;9.10;;
18592;SDS011;9426;54.118;17.948;2023-03-24T05:04:49;13.97;;;8.07;;
18592;SDS011;9426;54.118;17.948;2023-03-24T05:10:29;12.37;;;8.00;;
18592;SDS011;9426;54.118;17.948;2023-03-24T05:15:53;11.30;;;7.60;;
18592;SDS011;9426;54.118;17.948;2023-03-24T05:21:32;13.30;;;8.27;;
18592;SDS011;9426;54.118;17.948;2023-03-24T05:26:59;11.03;;;7.60;;
18592;SDS011;9426;54.118;17.948;2023-03-24T05:32:24;14.83;;;8.57;;
18592;SDS011;9426;54.118;17.948;2023-03-24T05:37:48;13.27;;;8.97;;
18592;SDS011;9426;54.118;17.948;2023-03-24T05:43:13;13.80;;;8.57;;
18592;SDS011;9426;54.118;17.948;2023-03-24T05:48:48;14.40;;;7.87;;
18592;SDS011;9426;54.118;17.948;2023-03-24T05:54:14;16.77;;;8.80;;
18592;SDS011;9426;54.118;17.948;2023-03-24T05:59:41;16.10;;;8.30;;
18592;SDS011;9426;54.118;17.948;2023-03-24T06:05:24;15.60;;;8.40;;
18592;SDS011;9426;54.118;17.948;2023-03-24T06:10:49;14.23;;;8.97;;
18592;SDS011;9426;54.118;17.948;2023-03-24T06:16:17;15.33;;;8.90;;
18592;SDS011;9426;54.118;17.948;2023-03-24T06:21:50;12.90;;;8.30;;
18592;SDS011;9426;54.118;17.948;2023-03-24T06:27:19;14.80;;;9.27;;
18592;SDS011;9426;54.118;17.948;2023-03-24T06:32:48;16.63;;;9.53;;
18592;SDS011;9426;54.118;17.948;2023-03-24T06:38:13;15.30;;;9.27;;
18592;SDS011;9426;54.118;17.948;2023-03-24T06:43:38;17.13;;;10.33;;
18592;SDS011;9426;54.118;17.948;2023-03-24T06:49:03;14.03;;;9.57;;
18592;SDS011;9426;54.118;17.948;2023-03-24T06:54:27;16.27;;;10.33;;
18592;SDS011;9426;54.118;17.948;2023-03-24T06:59:52;17.13;;;9.90;;
18592;SDS011;9426;54.118;17.948;2023-03-24T07:05:20;15.97;;;9.33;;
18592;SDS011;9426;54.118;17.948;2023-03-24T07:10:44;15.10;;;10.10;;
18592;SDS011;9426;54.118;17.948;2023-03-24T07:16:08;16.10;;;9.73;;
18592;SDS011;9426;54.118;17.948;2023-03-24T07:21:35;17.27;;;9.70;;
18592;SDS011;9426;54.118;17.948;2023-03-24T07:26:58;14.07;;;9.40;;
18592;SDS011;9426;54.118;17.948;2023-03-24T07:32:23;15.33;;;10.77;;
18592;SDS011;9426;54.118;17.948;2023-03-24T07:37:48;15.67;;;10.50;;
18592;SDS011;9426;54.118;17.948;2023-03-24T07:43:12;19.53;;;10.30;;
18592;SDS011;9426;54.118;17.948;2023-03-24T07:48:53;17.10;;;9.93;;
18592;SDS011;9426;54.118;17.948;2023-03-24T07:54:22;16.47;;;9.13;;
18592;SDS011;9426;54.118;17.948;2023-03-24T07:59:47;15.63;;;9.87;;
18592;SDS011;9426;54.118;17.948;2023-03-24T08:05:35;16.20;;;11.27;;
18592;SDS011;9426;54.118;17.948;2023-03-24T08:11:13;17.40;;;9.77;;
18592;SDS011;9426;54.118;17.948;2023-03-24T08:16:36;15.30;;;10.13;;
18592;SDS011;9426;54.118;17.948;2023-03-24T08:22:00;20.10;;;12.40;;
18592;SDS011;9426;54.118;17.948;2023-03-24T08:27:25;17.77;;;10.77;;
18592;SDS011;9426;54.118;17.948;2023-03-24T08:33:01;18.90;;;11.20;;
18592;SDS011;9426;54.118;17.948;2023-03-24T08:38:25;16.97;;;10.53;;
18592;SDS011;9426;54.118;17.948;2023-03-24T08:43:51;15.13;;;10.63;;
18592;SDS011;9426;54.118;17.948;2023-03-24T08:49:17;14.13;;;9.03;;
18592;SDS011;9426;54.118;17.948;2023-03-24T08:54:40;16.77;;;9.93;;
18592;SDS011;9426;54.118;17.948;2023-03-24T09:00:04;20.97;;;10.23;;
18592;SDS011;9426;54.118;17.948;2023-03-24T09:05:36;16.47;;;9.53;;
18592;SDS011;9426;54.118;17.948;2023-03-24T09:11:04;15.37;;;9.43;;
18592;SDS011;9426;54.118;17.948;2023-03-24T09:16:27;13.13;;;8.47;;
18592;SDS011;9426;54.118;17.948;2023-03-24T09:21:52;14.77;;;8.53;;
18592;SDS011;9426;54.118;17.948;2023-03-24T09:27:16;14.37;;;9.07;;
18592;SDS011;9426;54.118;17.948;2023-03-24T09:32:39;11.77;;;8.13;;
18592;SDS011;9426;54.118;17.948;2023-03-24T09:38:05;13.97;;;8.67;;
18592;SDS011;9426;54.118;17.948;2023-03-24T09:43:32;14.10;;;9.30;;
18592;SDS011;9426;54.118;17.948;2023-03-24T09:49:02;16.43;;;10.67;;
18592;SDS011;9426;54.118;17.948;2023-03-24T09:54:29;17.13;;;11.33;;
18592;SDS011;9426;54.118;17.948;2023-03-24T09:59:57;18.80;;;10.80;;
18592;SDS011;9426;54.118;17.948;2023-03-24T10:05:21;16.47;;;9.87;;
18592;SDS011;9426;54.118;17.948;2023-03-24T10:10:54;15.07;;;8.80;;
18592;SDS011;9426;54.118;17.948;2023-03-24T10:16:24;13.10;;;9.10;;
18592;SDS011;9426;54.118;17.948;2023-03-24T10:21:53;17.80;;;9.07;;
18592;SDS011;9426;54.118;17.948;2023-03-24T10:27:26;13.00;;;8.53;;
18592;SDS011;9426;54.118;17.948;2023-03-24T10:32:53;19.83;;;8.50;;
18592;SDS011;9426;54.118;17.948;2023-03-24T10:38:17;10.67;;;7.27;;
18592;SDS011;9426;54.118;17.948;2023-03-24T10:43:44;18.73;;;7.33;;
18592;SDS011;9426;54.118;17.948;2023-03-24T10:49:13;12.17;;;6.67;;
18592;SDS011;9426;54.118;17.948;2023-03-24T10:54:38;7.97;;;5.47;;
18592;SDS011;9426;54.118;17.948;2023-03-24T11:00:18;10.43;;;5.43;;
18592;SDS011;9426;54.118;17.948;2023-03-24T11:05:47;8.40;;;4.93;;
18592;SDS011;9426;54.118;17.948;2023-03-24T11:11:14;8.87;;;5.10;;
18592;SDS011;9426;54.118;17.948;2023-03-24T11:16:59;7.60;;;4.87;;
18592;SDS011;9426;54.118;17.948;2023-03-24T11:22:31;7.03;;;5.00;;
18592;SDS011;9426;54.118;17.948;2023-03-24T11:27:56;7.47;;;5.10;;
18592;SDS011;9426;54.118;17.948;2023-03-24T11:33:25;7.83;;;5.77;;
18592;SDS011;9426;54.118;17.948;2023-03-24T11:38:57;8.97;;;5.40;;
18592;SDS011;9426;54.118;17.948;2023-03-24T11:44:22;12.00;;;6.77;;
18592;SDS011;9426;54.118;17.948;2023-03-24T11:49:49;8.67;;;5.00;;
18592;SDS011;9426;54.118;17.948;2023-03-24T11:55:20;9.80;;;6.00;;
18592;SDS011;9426;54.118;17.948;2023-03-24T12:00:51;9.60;;;6.00;;
18592;SDS011;9426;54.118;17.948;2023-03-24T12:06:34;9.17;;;6.80;;
18592;SDS011;9426;54.118;17.948;2023-03-24T12:12:18;10.63;;;6.20;;
18592;SDS011;9426;54.118;17.948;2023-03-24T12:17:49;8.33;;;5.90;;
18592;SDS011;9426;54.118;17.948;2023-03-24T12:23:24;11.13;;;6.53;;
18592;SDS011;9426;54.118;17.948;2023-03-24T12:28:57;8.10;;;5.93;;
18592;SDS011;9426;54.118;17.948;2023-03-24T12:34:32;9.37;;;5.67;;
18592;SDS011;9426;54.118;17.948;2023-03-24T12:40:15;10.90;;;5.20;;
18592;SDS011;9426;54.118;17.948;2023-03-24T12:45:59;7.77;;;5.30;;
18592;SDS011;9426;54.118;17.948;2023-03-24T12:51:36;8.13;;;5.33;;
18592;SDS011;9426;54.118;17.948;2023-03-24T12:57:11;7.83;;;5.00;;
18592;SDS011;9426;54.118;17.948;2023-03-24T13:02:37;9.37;;;6.20;;
18592;SDS011;9426;54.118;17.948;2023-03-24T13:08:04;9.70;;;6.47;;
18592;SDS011;9426;54.118;17.948;2023-03-24T13:13:39;7.80;;;5.47;;
18592;SDS011;9426;54.118;17.948;2023-03-24T13:19:05;8.63;;;5.40;;
18592;SDS011;9426;54.118;17.948;2023-03-24T13:24:37;7.80;;;5.00;;
18592;SDS011;9426;54.118;17.948;2023-03-24T13:35:56;8.37;;;5.17;;
18592;SDS011;9426;54.118;17.948;2023-03-24T13:41:31;7.87;;;4.77;;
18592;SDS011;9426;54.118;17.948;2023-03-24T13:47:01;8.13;;;4.53;;
18592;SDS011;9426;54.118;17.948;2023-03-24T13:52:32;5.77;;;4.20;;
18592;SDS011;9426;54.118;17.948;2023-03-24T13:57:59;5.47;;;4.03;;
18592;SDS011;9426;54.118;17.948;2023-03-24T14:03:41;5.60;;;3.40;;
18592;SDS011;9426;54.118;17.948;2023-03-24T14:09:12;4.73;;;3.20;;
18592;SDS011;9426;54.118;17.948;2023-03-24T14:20:37;4.07;;;2.87;;
18592;SDS011;9426;54.118;17.948;2023-03-24T14:26:04;4.60;;;2.70;;
18592;SDS011;9426;54.118;17.948;2023-03-24T14:31:29;4.27;;;2.60;;
18592;SDS011;9426;54.118;17.948;2023-03-24T14:36:58;4.93;;;2.60;;
18592;SDS011;9426;54.118;17.948;2023-03-24T14:48:33;6.03;;;2.23;;
18592;SDS011;9426;54.118;17.948;2023-03-24T14:54:00;4.23;;;2.00;;
18592;SDS011;9426;54.118;17.948;2023-03-24T14:59:32;3.20;;;1.70;;
18592;SDS011;9426;54.118;17.948;2023-03-24T15:05:14;4.50;;;1.83;;
18592;SDS011;9426;54.118;17.948;2023-03-24T15:10:47;3.00;;;2.23;;
18592;SDS011;9426;54.118;17.948;2023-03-24T15:16:19;3.17;;;2.20;;
18592;SDS011;9426;54.118;17.948;2023-03-24T15:21:46;3.63;;;2.27;;
18592;SDS011;9426;54.118;17.948;2023-03-24T15:27:18;4.60;;;2.80;;
18592;SDS011;9426;54.118;17.948;2023-03-24T15:32:44;4.23;;;2.50;;
18592;SDS011;9426;54.118;17.948;2023-03-24T15:38:16;5.70;;;3.03;;
18592;SDS011;9426;54.118;17.948;2023-03-24T15:43:44;7.33;;;2.97;;
18592;SDS011;9426;54.118;17.948;2023-03-24T15:49:15;5.43;;;2.67;;
18592;SDS011;9426;54.118;17.948;2023-03-24T15:54:43;4.73;;;2.60;;
18592;SDS011;9426;54.118;17.948;2023-03-24T16:00:12;3.47;;;2.20;;
18592;SDS011;9426;54.118;17.948;2023-03-24T16:05:37;6.97;;;2.37;;
18592;SDS011;9426;54.118;17.948;2023-03-24T16:11:09;8.43;;;2.27;;
18592;SDS011;9426;54.118;17.948;2023-03-24T16:16:36;6.30;;;2.10;;
18592;SDS011;9426;54.118;17.948;2023-03-24T16:22:00;7.13;;;2.03;;
18592;SDS011;9426;54.118;17.948;2023-03-24T16:27:24;6.90;;;2.20;;
18592;SDS011;9426;54.118;17.948;2023-03-24T16:32:49;9.30;;;3.20;;
18592;SDS011;9426;54.118;17.948;2023-03-24T16:38:12;8.63;;;2.47;;
18592;SDS011;9426;54.118;17.948;2023-03-24T16:43:38;9.90;;;3.13;;
18592;SDS011;9426;54.118;17.948;2023-03-24T16:49:03;10.23;;;3.20;;
18592;SDS011;9426;54.118;17.948;2023-03-24T16:54:28;12.90;;;3.13;;
18592;SDS011;9426;54.118;17.948;2023-03-24T16:59:52;5.93;;;2.17;;
18592;SDS011;9426;54.118;17.948;2023-03-24T17:05:20;18.80;;;6.37;;
18592;SDS011;9426;54.118;17.948;2023-03-24T17:10:46;15.93;;;6.70;;
18592;SDS011;9426;54.118;17.948;2023-03-24T17:16:15;21.33;;;9.33;;
18592;SDS011;9426;54.118;17.948;2023-03-24T17:21:41;17.93;;;6.03;;
18592;SDS011;9426;54.118;17.948;2023-03-24T17:27:09;13.07;;;3.57;;
18592;SDS011;9426;54.118;17.948;2023-03-24T17:32:34;39.03;;;16.17;;
18592;SDS011;9426;54.118;17.948;2023-03-24T17:38:00;15.37;;;6.67;;
18592;SDS011;9426;54.118;17.948;2023-03-24T17:43:23;21.43;;;7.57;;
18592;SDS011;9426;54.118;17.948;2023-03-24T17:48:47;11.30;;;3.37;;
18592;SDS011;9426;54.118;17.948;2023-03-24T17:54:12;16.50;;;5.40;;
18592;SDS011;9426;54.118;17.948;2023-03-24T17:59:37;11.07;;;4.20;;
18592;SDS011;9426;54.118;17.948;2023-03-24T18:05:00;12.67;;;4.60;;
18592;SDS011;9426;54.118;17.948;2023-03-24T18:10:27;14.73;;;4.53;;
18592;SDS011;9426;54.118;17.948;2023-03-24T18:15:54;14.10;;;3.73;;
18592;SDS011;9426;54.118;17.948;2023-03-24T18:21:20;9.03;;;2.90;;
18592;SDS011;9426;54.118;17.948;2023-03-24T18:26:44;19.63;;;3.63;;
18592;SDS011;9426;54.118;17.948;2023-03-24T18:32:09;17.67;;;4.73;;
18592;SDS011;9426;54.118;17.948;2023-03-24T18:37:36;15.27;;;3.80;;
18592;SDS011;9426;54.118;17.948;2023-03-24T18:43:00;14.47;;;4.23;;
18592;SDS011;9426;54.118;17.948;2023-03-24T18:48:24;13.13;;;3.53;;
18592;SDS011;9426;54.118;17.948;2023-03-24T18:53:47;15.60;;;4.03;;
18592;SDS011;9426;54.118;17.948;2023-03-24T18:59:12;12.77;;;3.90;;
18592;SDS011;9426;54.118;17.948;2023-03-24T19:04:36;18.00;;;4.37;;
18592;SDS011;9426;54.118;17.948;2023-03-24T19:09:59;19.47;;;6.70;;
18592;SDS011;9426;54.118;17.948;2023-03-24T19:15:26;16.37;;;6.33;;
18592;SDS011;9426;54.118;17.948;2023-03-24T19:20:53;19.17;;;7.20;;
18592;SDS011;9426;54.118;17.948;2023-03-24T19:26:17;51.27;;;23.60;;
18592;SDS011;9426;54.118;17.948;2023-03-24T19:31:42;22.27;;;10.87;;
18592;SDS011;9426;54.118;17.948;2023-03-24T19:37:05;21.90;;;8.77;;
18592;SDS011;9426;54.118;17.948;2023-03-24T19:42:30;18.33;;;7.60;;
18592;SDS011;9426;54.118;17.948;2023-03-24T19:47:55;36.43;;;14.00;;
18592;SDS011;9426;54.118;17.948;2023-03-24T19:53:19;79.43;;;30.03;;
18592;SDS011;9426;54.118;17.948;2023-03-24T19:58:44;34.33;;;13.30;;
18592;SDS011;9426;54.118;17.948;2023-03-24T20:04:08;37.90;;;16.70;;
18592;SDS011;9426;54.118;17.948;2023-03-24T20:09:32;24.77;;;10.17;;
18592;SDS011;9426;54.118;17.948;2023-03-24T20:14:55;18.20;;;7.87;;
18592;SDS011;9426;54.118;17.948;2023-03-24T20:20:20;24.30;;;7.57;;
18592;SDS011;9426;54.118;17.948;2023-03-24T20:25:44;16.00;;;6.57;;
18592;SDS011;9426;54.118;17.948;2023-03-24T20:31:08;17.77;;;6.87;;
18592;SDS011;9426;54.118;17.948;2023-03-24T20:36:33;16.37;;;8.10;;
18592;SDS011;9426;54.118;17.948;2023-03-24T20:41:58;14.77;;;8.07;;
18592;SDS011;9426;54.118;17.948;2023-03-24T20:47:22;21.47;;;9.13;;
18592;SDS011;9426;54.118;17.948;2023-03-24T20:52:47;18.17;;;6.57;;
18592;SDS011;9426;54.118;17.948;2023-03-24T20:58:10;12.33;;;6.00;;
18592;SDS011;9426;54.118;17.948;2023-03-24T21:03:34;23.20;;;7.50;;
18592;SDS011;9426;54.118;17.948;2023-03-24T21:08:59;14.87;;;7.30;;
18592;SDS011;9426;54.118;17.948;2023-03-24T21:14:23;23.47;;;8.40;;
18592;SDS011;9426;54.118;17.948;2023-03-24T21:19:47;21.27;;;8.43;;
18592;SDS011;9426;54.118;17.948;2023-03-24T21:25:12;25.93;;;10.57;;
18592;SDS011;9426;54.118;17.948;2023-03-24T21:30:36;26.77;;;9.90;;
18592;SDS011;9426;54.118;17.948;2023-03-24T21:36:00;22.53;;;9.60;;
18592;SDS011;9426;54.118;17.948;2023-03-24T21:41:25;21.73;;;9.53;;
18592;SDS011;9426;54.118;17.948;2023-03-24T21:46:49;19.60;;;9.50;;
18592;SDS011;9426;54.118;17.948;2023-03-24T21:52:12;19.37;;;8.33;;
18592;SDS011;9426;54.118;17.948;2023-03-24T21:57:39;14.80;;;7.83;;
18592;SDS011;9426;54.118;17.948;2023-03-24T22:03:03;13.63;;;6.63;;
18592;SDS011;9426;54.118;17.948;2023-03-24T22:08:28;12.27;;;6.13;;
18592;SDS011;9426;54.118;17.948;2023-03-24T22:13:53;15.20;;;6.60;;
18592;SDS011;9426;54.118;17.948;2023-03-24T22:19:16;19.47;;;7.70;;
18592;SDS011;9426;54.118;17.948;2023-03-24T22:24:41;14.57;;;8.83;;
18592;SDS011;9426;54.118;17.948;2023-03-24T22:30:07;20.83;;;8.90;;
18592;SDS011;9426;54.118;17.948;2023-03-24T22:35:31;26.03;;;9.30;;
18592;SDS011;9426;54.118;17.948;2023-03-24T22:40:55;20.70;;;9.97;;
18592;SDS011;9426;54.118;17.948;2023-03-24T22:46:21;24.33;;;10.47;;
18592;SDS011;9426;54.118;17.948;2023-03-24T22:51:45;22.60;;;12.33;;
18592;SDS011;9426;54.118;17.948;2023-03-24T22:57:08;20.87;;;11.30;;
18592;SDS011;9426;54.118;17.948;2023-03-24T23:02:33;21.10;;;10.93;;
18592;SDS011;9426;54.118;17.948;2023-03-24T23:07:56;27.97;;;12.27;;
18592;SDS011;9426;54.118;17.948;2023-03-24T23:13:20;26.27;;;11.60;;
18592;SDS011;9426;54.118;17.948;2023-03-24T23:18:47;16.70;;;9.50;;
18592;SDS011;9426;54.118;17.948;2023-03-24T23:24:11;18.47;;;9.73;;
18592;SDS011;9426;54.118;17.948;2023-03-24T23:29:36;21.63;;;11.00;;
18592;SDS011;9426;54.118;17.948;2023-03-24T23:35:03;17.63;;;9.80;;
18592;SDS011;9426;54.118;17.948;2023-03-24T23:40:27;20.53;;;10.27;;
18592;SDS011;9426;54.118;17.948;2023-03-24T23:45:52;20.23;;;9.17;;
18592;SDS011;9426;54.118;17.948;2023-03-24T23:51:18;16.43;;;8.63;;
18592;SDS011;9426;54.118;17.948;2023-03-24T23:56:42;17.27;;;9.53;;
